Time;durP1;ratioP1;P1;durP2;ratioP2;P2;SDS_P1;SDS_P2;PMS_P1;PMS_P2;Temp;Humidity;BMP_temperature;BMP_pressure;BME280_temperature;BME280_humidity;BME280_pressure;Samples;Min_cycle;Max_cycle;Signal;HPM_P1;HPM_P2
2022/07/04 00:00:15;;;;;;;5.15;2.80;;;;;;;14.07;100.00;101547.22;4973775;28;20175;-46
2022/07/04 00:02:42;;;;;;;2.97;2.20;;;;;;;14.04;100.00;101539.25;4973316;28;20646;-46
2022/07/04 00:05:10;;;;;;;3.05;2.53;;;;;;;14.04;100.00;101548.25;4973528;28;20698;-44
2022/07/04 00:07:48;;;;;;;7.65;2.97;;;;;;;13.97;100.00;101536.84;4973322;28;20202;-45
2022/07/04 00:10:16;;;;;;;5.35;2.72;;;;;;;13.85;100.00;101540.03;4973179;28;20300;-41
2022/07/04 00:12:43;;;;;;;2.67;2.17;;;;;;;13.90;100.00;101532.63;4956086;28;20217;-42
2022/07/04 00:15:09;;;;;;;4.57;3.80;;;;;;;13.79;100.00;101534.88;4973000;28;20178;-41
2022/07/04 00:17:35;;;;;;;4.82;3.25;;;;;;;13.84;100.00;101530.19;4973371;28;20281;-40
2022/07/04 00:20:01;;;;;;;5.43;3.40;;;;;;;13.91;100.00;101530.81;4972788;28;20519;-42
2022/07/04 00:22:27;;;;;;;6.15;3.75;;;;;;;13.92;100.00;101529.88;4973303;28;20169;-43
2022/07/04 00:24:53;;;;;;;7.25;3.72;;;;;;;13.83;100.00;101530.25;4973039;28;20582;-43
2022/07/04 00:27:18;;;;;;;6.00;4.07;;;;;;;13.84;100.00;101527.50;4972836;28;20198;-41
2022/07/04 00:29:43;;;;;;;5.00;4.25;;;;;;;13.71;100.00;101526.22;4973141;28;20889;-42
2022/07/04 00:32:09;;;;;;;5.53;4.60;;;;;;;13.74;100.00;101532.38;4972740;28;20261;-43
2022/07/04 00:34:35;;;;;;;8.57;4.80;;;;;;;13.58;100.00;101534.81;4972684;28;20650;-46
2022/07/04 00:37:01;;;;;;;10.88;4.95;;;;;;;13.67;100.00;101528.19;4972953;28;20679;-49
2022/07/04 00:39:27;;;;;;;6.15;4.50;;;;;;;13.74;100.00;101529.69;4972971;28;20182;-47
2022/07/04 00:41:53;;;;;;;9.27;4.72;;;;;;;13.76;100.00;101532.31;4973029;28;20515;-45
2022/07/04 00:44:18;;;;;;;7.88;4.97;;;;;;;13.71;100.00;101523.53;4972756;28;20174;-43
2022/07/04 00:46:46;;;;;;;7.00;4.95;;;;;;;13.74;100.00;101526.97;4973033;28;20194;-43
2022/07/04 00:49:13;;;;;;;7.47;4.30;;;;;;;13.89;100.00;101538.97;4972731;28;20265;-45
2022/07/04 00:51:40;;;;;;;7.95;4.60;;;;;;;13.80;100.00;101526.75;4972792;28;20182;-43
2022/07/04 00:54:07;;;;;;;7.78;4.20;;;;;;;13.87;100.00;101529.19;4971819;28;20174;-46
2022/07/04 00:56:36;;;;;;;9.50;4.22;;;;;;;13.80;100.00;101525.88;4971237;28;20174;-41
2022/07/04 00:59:01;;;;;;;11.00;4.65;;;;;;;13.72;100.00;101525.31;4972535;28;20634;-44
2022/07/04 01:01:27;;;;;;;9.85;5.07;;;;;;;13.76;100.00;101529.63;4971440;28;20216;-43
2022/07/04 01:03:53;;;;;;;5.95;4.97;;;;;;;13.75;100.00;101525.16;4972594;28;20174;-43
2022/07/04 01:06:19;;;;;;;6.75;4.80;;;;;;;13.78;100.00;101522.38;4955340;28;20293;-43
2022/07/04 01:08:45;;;;;;;9.98;5.03;;;;;;;13.74;100.00;101526.13;4972294;28;20214;-44
2022/07/04 01:11:12;;;;;;;9.68;5.38;;;;;;;13.73;100.00;101517.16;4955275;28;20570;-43
2022/07/04 01:13:40;;;;;;;5.93;5.05;;;;;;;13.74;100.00;101526.13;4972298;28;20228;-44
2022/07/04 01:16:07;;;;;;;6.43;5.10;;;;;;;13.72;100.00;101514.53;4972429;28;20170;-42
2022/07/04 01:18:32;;;;;;;5.45;4.68;;;;;;;13.81;100.00;101524.91;4972208;28;20885;-43
2022/07/04 01:20:58;;;;;;;5.38;4.80;;;;;;;13.80;100.00;101528.56;4972526;28;20356;-42
2022/07/04 01:23:24;;;;;;;8.45;5.07;;;;;;;13.77;100.00;101531.38;4972518;28;20161;-42
2022/07/04 01:25:50;;;;;;;9.20;5.70;;;;;;;13.89;100.00;101530.88;4972073;28;20221;-42
2022/07/04 01:28:17;;;;;;;6.70;5.38;;;;;;;13.86;100.00;101520.22;4971948;28;20190;-46
2022/07/04 01:30:43;;;;;;;10.27;5.57;;;;;;;13.76;100.00;101530.50;4971431;28;20666;-45
2022/07/04 01:33:08;;;;;;;9.57;5.30;;;;;;;13.72;100.00;101528.88;4971251;28;20270;-46
2022/07/04 01:35:34;;;;;;;14.40;5.88;;;;;;;13.70;100.00;101527.19;4972092;28;20253;-46
2022/07/04 01:37:59;;;;;;;8.63;6.13;;;;;;;13.71;100.00;101537.00;4971368;28;20218;-46
2022/07/04 01:40:25;;;;;;;8.95;6.10;;;;;;;13.65;100.00;101534.56;4971813;28;20198;-48
2022/07/04 01:42:50;;;;;;;7.50;5.80;;;;;;;13.75;100.00;101533.25;4972029;28;20201;-48
2022/07/04 01:45:16;;;;;;;9.07;5.88;;;;;;;13.69;100.00;101534.38;4971222;28;20540;-46
2022/07/04 01:47:41;;;;;;;9.02;6.07;;;;;;;13.72;100.00;101530.69;4971456;28;20200;-48
2022/07/04 01:50:09;;;;;;;7.07;5.88;;;;;;;13.72;100.00;101544.16;4971692;28;20546;-48
2022/07/04 01:52:44;;;;;;;8.90;5.60;;;;;;;13.69;100.00;101533.50;4990195;28;20181;-47
2022/07/04 01:55:10;;;;;;;9.85;5.95;;;;;;;13.64;100.00;101544.44;4986812;28;20196;-48
2022/07/04 01:57:36;;;;;;;9.00;5.47;;;;;;;13.58;100.00;101533.94;4990560;28;20193;-47
2022/07/04 02:02:48;;;;;;;8.30;5.60;;;;;;;13.51;100.00;101535.09;4990141;28;20699;-47
2022/07/04 02:05:14;;;;;;;8.60;5.50;;;;;;;13.62;100.00;101535.53;4990445;28;20185;-48
2022/07/04 02:07:40;;;;;;;11.27;6.38;;;;;;;13.60;100.00;101532.94;4990268;28;20205;-48
2022/07/04 02:10:06;;;;;;;7.57;5.50;;;;;;;13.56;100.00;101538.50;4990762;28;20207;-49
2022/07/04 02:15:15;;;;;;;7.93;5.60;;;;;;;13.48;100.00;101533.41;4990377;28;20296;-48
2022/07/04 02:17:40;;;;;;;7.25;5.03;;;;;;;13.54;100.00;101541.25;4990122;28;20220;-47
2022/07/04 02:20:06;;;;;;;6.82;5.70;;;;;;;13.41;100.00;101534.59;4989434;28;20222;-48
2022/07/04 02:22:32;;;;;;;8.30;6.00;;;;;;;13.44;100.00;101541.66;4990456;28;20182;-48
2022/07/04 02:24:57;;;;;;;9.35;5.25;;;;;;;13.47;100.00;101528.97;4989286;28;20197;-47
2022/07/04 02:27:23;;;;;;;8.35;5.75;;;;;;;13.40;100.00;101538.19;4990328;28;20763;-46
2022/07/04 02:29:49;;;;;;;9.27;5.70;;;;;;;13.40;100.00;101532.81;4990001;28;20196;-50
2022/07/04 02:32:14;;;;;;;7.47;5.20;;;;;;;13.38;100.00;101538.28;4972696;28;20272;-48
2022/07/04 02:34:40;;;;;;;6.35;4.90;;;;;;;13.39;100.00;101531.94;4989727;28;20265;-48
2022/07/04 02:37:06;;;;;;;12.02;5.53;;;;;;;13.38;100.00;101548.16;4990076;28;20205;-47
2022/07/04 02:39:32;;;;;;;10.07;5.60;;;;;;;13.31;100.00;101544.81;4990325;28;20193;-47
2022/07/04 02:41:57;;;;;;;8.35;5.43;;;;;;;13.33;100.00;101550.16;4990116;28;20278;-49
2022/07/04 02:44:23;;;;;;;9.65;5.10;;;;;;;13.33;100.00;101544.75;4989839;28;20649;-49
2022/07/04 02:46:49;;;;;;;6.63;4.70;;;;;;;13.31;100.00;101552.03;4989935;28;20221;-48
2022/07/04 02:49:14;;;;;;;6.18;4.20;;;;;;;13.38;100.00;101553.53;4989625;28;20189;-47
2022/07/04 02:51:40;;;;;;;10.25;5.50;;;;;;;13.35;100.00;101559.03;4990049;28;20201;-49
2022/07/04 02:54:05;;;;;;;5.97;4.57;;;;;;;13.34;100.00;101547.41;4989534;28;20683;-48
2022/07/04 02:56:31;;;;;;;8.70;5.15;;;;;;;13.26;100.00;101557.53;4989971;28;20204;-48
2022/07/04 02:58:56;;;;;;;6.05;5.35;;;;;;;13.26;100.00;101554.84;4990083;28;20178;-48
2022/07/04 03:01:22;;;;;;;7.70;5.18;;;;;;;13.29;100.00;101559.28;4989647;28;20158;-48
2022/07/04 03:03:48;;;;;;;8.20;4.65;;;;;;;13.31;100.00;101566.34;4989109;28;20192;-49
2022/07/04 03:06:14;;;;;;;5.82;4.43;;;;;;;13.37;100.00;101566.13;4989709;28;20170;-47
2022/07/04 03:08:40;;;;;;;7.20;4.57;;;;;;;13.38;100.00;101572.38;4990110;28;20205;-48
2022/07/04 03:11:06;;;;;;;7.97;4.15;;;;;;;13.39;100.00;101575.00;4972337;28;20185;-48
2022/07/04 03:13:32;;;;;;;5.60;4.20;;;;;;;13.34;100.00;101570.75;4989152;28;20161;-48
2022/07/04 03:15:57;;;;;;;8.80;4.32;;;;;;;13.36;100.00;101563.50;4989682;28;20240;-48
2022/07/04 03:18:23;;;;;;;6.80;3.92;;;;;;;13.28;100.00;101566.47;4990031;28;20676;-47
2022/07/04 03:20:49;;;;;;;6.30;3.95;;;;;;;13.32;100.00;101570.81;4994055;28;20696;-47
2022/07/04 03:23:15;;;;;;;8.52;4.35;;;;;;;13.26;100.00;101570.13;4975523;28;20220;-48
2022/07/04 03:25:41;;;;;;;5.18;4.10;;;;;;;13.29;100.00;101570.03;4993684;28;20276;-48
2022/07/04 03:28:07;;;;;;;7.82;4.85;;;;;;;13.26;100.00;101575.50;4976148;28;20251;-49
2022/07/04 03:30:32;;;;;;;7.93;3.75;;;;;;;13.33;100.00;101569.84;4993160;28;20711;-49
2022/07/04 03:32:59;;;;;;;8.07;3.95;;;;;;;13.33;100.00;101569.00;4993206;28;20165;-48
2022/07/04 03:35:25;;;;;;;7.78;4.40;;;;;;;13.29;100.00;101578.97;4993843;28;20181;-50
2022/07/04 03:37:51;;;;;;;7.70;3.80;;;;;;;13.36;100.00;101575.16;4993334;28;20296;-49
2022/07/04 03:40:17;;;;;;;7.10;3.80;;;;;;;13.28;100.00;101593.38;4993641;28;20181;-50
2022/07/04 03:42:43;;;;;;;5.97;3.72;;;;;;;13.29;100.00;101583.50;4993054;28;20185;-50
2022/07/04 03:45:09;;;;;;;6.80;4.07;;;;;;;13.24;100.00;101589.03;4993004;28;20200;-48
2022/07/04 03:47:35;;;;;;;11.75;4.20;;;;;;;13.32;100.00;101570.81;4993151;28;20212;-47
2022/07/04 03:50:00;;;;;;;8.00;3.80;;;;;;;13.31;100.00;101568.16;4993181;28;20668;-48
2022/07/04 03:52:26;;;;;;;7.47;3.85;;;;;;;13.26;100.00;101580.91;4975496;28;20174;-49
2022/07/04 03:54:51;;;;;;;5.93;3.33;;;;;;;13.37;100.00;101582.28;4989003;28;20185;-47
2022/07/04 03:57:17;;;;;;;3.80;3.25;;;;;;;13.47;100.00;101592.69;4993116;28;20250;-47
2022/07/04 03:59:42;;;;;;;3.80;3.33;;;;;;;13.38;100.00;101586.72;4993272;28;20202;-48
2022/07/04 04:02:08;;;;;;;6.35;3.17;;;;;;;13.51;100.00;101584.47;4992804;28;20158;-49
2022/07/04 04:07:17;;;;;;;5.95;3.00;;;;;;;13.59;100.00;101592.22;4986009;28;20295;-48
2022/07/04 04:09:43;;;;;;;4.88;3.17;;;;;;;13.50;100.00;101577.28;4992902;28;20201;-47
2022/07/04 04:12:08;;;;;;;5.20;3.10;;;;;;;13.63;100.00;101584.91;4992776;28;20209;-48
2022/07/04 04:14:34;;;;;;;9.13;3.05;;;;;;;13.70;100.00;101581.03;4992038;28;20189;-50
2022/07/04 04:16:59;;;;;;;6.50;2.85;;;;;;;13.68;100.00;101593.69;4992662;28;20256;-47
2022/07/04 04:19:25;;;;;;;7.00;3.08;;;;;;;13.57;100.00;101589.56;4992724;28;20204;-48
2022/07/04 04:21:50;;;;;;;6.82;2.70;;;;;;;13.56;100.00;101584.28;4992997;28;20170;-48
2022/07/04 04:24:16;;;;;;;6.90;2.88;;;;;;;13.64;100.00;101592.91;4991579;28;20189;-48
2022/07/04 04:26:41;;;;;;;5.15;2.40;;;;;;;13.62;100.00;101594.78;4992647;28;20209;-50
2022/07/04 04:29:07;;;;;;;4.70;2.33;;;;;;;13.66;100.00;101601.81;4990822;28;20227;-49
2022/07/04 04:31:32;;;;;;;4.63;2.13;;;;;;;13.77;100.00;101594.22;4992436;28;20205;-49
2022/07/04 04:33:58;;;;;;;6.90;2.10;;;;;;;13.72;100.00;101590.81;4991964;28;20535;-47
2022/07/04 04:36:23;;;;;;;2.80;2.35;;;;;;;13.78;100.00;101595.09;4975039;28;20181;-46
2022/07/04 04:38:49;;;;;;;7.70;2.70;;;;;;;13.77;100.00;101604.09;4992354;28;20185;-48
2022/07/04 04:41:16;;;;;;;6.70;2.30;;;;;;;13.78;100.00;101600.47;4991953;28;20176;-48
2022/07/04 04:43:41;;;;;;;6.93;2.75;;;;;;;13.74;100.00;101606.91;4991497;28;20189;-50
2022/07/04 04:46:07;;;;;;;8.60;2.70;;;;;;;13.75;100.00;101614.03;4992373;28;20170;-47
2022/07/04 04:48:32;;;;;;;8.05;2.10;;;;;;;13.76;100.00;101611.28;4992193;28;20207;-46
2022/07/04 04:50:58;;;;;;;5.80;1.92;;;;;;;13.78;100.00;101611.25;4991809;28;20849;-48
2022/07/04 04:53:25;;;;;;;4.65;1.98;;;;;;;13.81;100.00;101603.91;4974430;28;20212;-48
2022/07/04 04:55:52;;;;;;;7.97;1.95;;;;;;;13.87;100.00;101601.94;4992004;28;20185;-47
2022/07/04 04:58:19;;;;;;;6.30;1.90;;;;;;;13.94;100.00;101612.38;4974590;28;20568;-47
2022/07/04 05:00:44;;;;;;;5.90;2.13;;;;;;;13.89;100.00;101606.31;4991731;28;20575;-48
2022/07/04 05:03:10;;;;;;;4.10;1.90;;;;;;;14.12;100.00;101605.38;4991654;28;20173;-48
2022/07/04 05:05:35;;;;;;;3.10;1.90;;;;;;;14.30;100.00;101598.38;4991880;28;20175;-47
2022/07/04 05:08:00;;;;;;;4.25;2.00;;;;;;;14.31;100.00;101602.81;4991761;28;20597;-46
2022/07/04 05:10:26;;;;;;;3.20;1.90;;;;;;;14.48;100.00;101606.63;4973898;28;20193;-48
2022/07/04 05:12:52;;;;;;;6.63;2.00;;;;;;;14.51;100.00;101617.28;4991560;28;20265;-47
2022/07/04 05:15:17;;;;;;;4.30;1.67;;;;;;;14.47;100.00;101619.22;4991774;28;20186;-48
2022/07/04 05:17:43;;;;;;;5.18;2.08;;;;;;;14.55;100.00;101627.91;4991646;28;20217;-48
2022/07/04 05:20:09;;;;;;;4.72;2.00;;;;;;;14.51;100.00;101630.75;4974013;28;20221;-48
2022/07/04 05:22:34;;;;;;;4.82;1.50;;;;;;;14.54;100.00;101633.31;4991778;28;20228;-48
2022/07/04 05:25:00;;;;;;;5.32;1.70;;;;;;;14.47;100.00;101639.91;4990851;28;20185;-48
2022/07/04 05:27:26;;;;;;;3.97;1.75;;;;;;;14.50;100.00;101642.50;4991181;28;20280;-46
2022/07/04 05:29:51;;;;;;;5.45;1.70;;;;;;;14.58;100.00;101652.06;4991259;28;20205;-48
2022/07/04 05:32:17;;;;;;;11.85;1.88;;;;;;;14.78;100.00;101645.81;4973338;28;20165;-50
2022/07/04 05:34:42;;;;;;;3.13;1.50;;;;;;;14.87;100.00;101643.66;4990841;28;20226;-50
2022/07/04 05:37:08;;;;;;;6.30;1.70;;;;;;;14.82;100.00;101643.84;4991084;28;20205;-50
2022/07/04 05:39:33;;;;;;;8.65;1.95;;;;;;;14.69;100.00;101639.91;4990977;28;20669;-47
2022/07/04 05:41:59;;;;;;;7.57;1.50;;;;;;;14.83;100.00;101643.78;4990061;28;20209;-47
2022/07/04 05:44:24;;;;;;;6.28;1.52;;;;;;;14.84;100.00;101644.66;4990554;28;20210;-47
2022/07/04 05:46:50;;;;;;;4.15;1.63;;;;;;;14.92;100.00;101647.03;4973877;28;20201;-48
2022/07/04 05:49:16;;;;;;;5.65;1.50;;;;;;;14.87;100.00;101639.16;4991293;28;20264;-48
2022/07/04 05:51:41;;;;;;;7.30;1.50;;;;;;;14.79;100.00;101641.28;4979513;28;20213;-47
2022/07/04 05:54:07;;;;;;;4.35;1.52;;;;;;;15.02;100.00;101772.50;4953873;28;20186;-47
2022/07/04 05:56:32;;;;;;;6.10;1.70;;;;;;;15.16;100.00;101861.91;4971390;28;20749;-47
2022/07/04 05:58:58;;;;;;;4.25;1.35;;;;;;;15.15;100.00;101806.19;4972007;28;20177;-45
2022/07/04 06:01:23;;;;;;;5.00;1.45;;;;;;;15.23;100.00;101984.91;4954288;28;20158;-47
2022/07/04 06:03:49;;;;;;;2.30;1.20;;;;;;;15.42;100.00;101998.56;4972013;28;20237;-44
2022/07/04 06:06:15;;;;;;;3.78;1.38;;;;;;;15.38;99.26;101928.53;4972138;28;20174;-46
2022/07/04 06:08:41;;;;;;;4.15;1.40;;;;;;;15.22;99.72;101926.47;4971812;28;20318;-43
2022/07/04 06:11:06;;;;;;;6.03;1.33;;;;;;;15.69;99.96;101913.75;4971640;28;20194;-45
2022/07/04 06:13:32;;;;;;;2.08;1.30;;;;;;;15.85;98.73;101887.84;4971408;28;20324;-50
2022/07/04 06:15:57;;;;;;;6.03;1.40;;;;;;;16.02;98.01;101879.88;4971734;28;20208;-43
2022/07/04 06:18:23;;;;;;;4.82;1.55;;;;;;;16.12;96.34;101883.06;4971195;28;20572;-46
2022/07/04 06:20:49;;;;;;;4.35;1.02;;;;;;;16.58;94.94;102000.03;4971571;28;20171;-44
2022/07/04 06:23:14;;;;;;;6.25;1.33;;;;;;;16.28;93.02;102048.22;4971502;28;20260;-45
2022/07/04 06:25:40;;;;;;;7.60;1.75;;;;;;;16.79;93.01;101990.06;4971450;28;20166;-45
2022/07/04 06:28:06;;;;;;;4.93;1.13;;;;;;;16.99;90.28;101956.69;4980266;28;20208;-43
2022/07/04 06:30:31;;;;;;;2.88;1.38;;;;;;;17.26;89.73;101931.94;4990707;28;20213;-41
2022/07/04 06:32:59;;;;;;;7.00;1.20;;;;;;;17.51;88.03;101928.88;4990989;28;20190;-44
2022/07/04 06:35:54;;;;;;;3.88;1.13;;;;;;;17.59;86.71;101910.41;4990815;28;20244;-47
2022/07/04 06:38:28;;;;;;;6.10;1.33;;;;;;;17.27;87.02;102053.75;4990452;28;20220;-44
2022/07/04 06:40:58;;;;;;;5.93;1.10;;;;;;;17.71;87.12;102041.75;4990667;28;20170;-45
2022/07/04 06:43:24;;;;;;;5.45;1.13;;;;;;;18.00;84.90;101968.94;4990665;28;20640;-44
2022/07/04 06:45:51;;;;;;;5.22;1.35;;;;;;;18.07;83.44;101944.13;4990376;28;20649;-48
2022/07/04 06:48:17;;;;;;;3.08;0.90;;;;;;;18.14;84.16;101933.84;4988253;28;20715;-43
2022/07/04 06:50:42;;;;;;;4.20;1.10;;;;;;;17.77;83.41;101933.00;4991425;28;20189;-44
2022/07/04 06:53:09;;;;;;;4.00;1.10;;;;;;;17.52;85.45;101935.22;4992978;28;20224;-44
2022/07/04 06:55:39;;;;;;;6.10;1.30;;;;;;;18.01;83.10;101932.72;4995342;28;20270;-44
2022/07/04 06:58:06;;;;;;;5.88;1.20;;;;;;;18.52;82.41;101920.09;4994987;28;20586;-43
2022/07/04 07:00:31;;;;;;;2.30;1.00;;;;;;;18.27;80.66;101917.78;4977893;28;20173;-48
2022/07/04 07:03:01;;;;;;;4.00;1.15;;;;;;;18.74;81.19;101900.78;4977954;28;20169;-45
2022/07/04 07:05:27;;;;;;;4.43;1.13;;;;;;;18.85;77.79;101894.78;4994763;28;20183;-43
2022/07/04 07:07:53;;;;;;;4.90;1.15;;;;;;;18.75;79.17;101891.66;4995098;28;20197;-44
2022/07/04 07:10:20;;;;;;;5.43;0.93;;;;;;;19.02;76.74;101892.00;4994730;28;20631;-45
2022/07/04 07:12:45;;;;;;;4.88;1.17;;;;;;;18.91;77.73;101884.47;4994999;28;20249;-46
2022/07/04 07:15:13;;;;;;;5.63;1.27;;;;;;;19.33;78.14;101885.66;4994751;28;20264;-45
2022/07/04 07:17:42;;;;;;;4.13;1.10;;;;;;;19.68;76.88;101862.81;4994750;28;20291;-47
2022/07/04 07:20:08;;;;;;;3.65;1.23;;;;;;;19.97;75.55;101863.78;4994603;28;20161;-45
2022/07/04 07:22:33;;;;;;;3.78;1.00;;;;;;;19.80;73.77;101864.81;4994843;28;20265;-45
2022/07/04 07:24:59;;;;;;;4.13;1.10;;;;;;;19.34;74.98;101854.78;4994365;28;20197;-46
2022/07/04 07:27:24;;;;;;;3.53;1.10;;;;;;;19.54;75.07;101844.59;4994804;28;20205;-45
2022/07/04 07:29:50;;;;;;;4.38;1.50;;;;;;;19.43;74.86;101831.63;4994472;28;20288;-44
2022/07/04 07:32:17;;;;;;;3.50;0.90;;;;;;;18.98;77.86;101843.34;4994656;28;20540;-46
2022/07/04 07:34:42;;;;;;;2.85;0.82;;;;;;;19.64;76.33;101850.38;4994948;28;20201;-45
2022/07/04 07:37:08;;;;;;;2.40;0.85;;;;;;;19.84;74.58;101836.44;4994403;28;20244;-44
2022/07/04 07:39:33;;;;;;;4.70;0.90;;;;;;;19.88;73.53;101845.31;4994590;28;20645;-45
2022/07/04 07:41:59;;;;;;;4.63;1.10;;;;;;;18.97;75.90;101836.19;4994374;28;20158;-48
2022/07/04 07:44:25;;;;;;;5.07;1.48;;;;;;;18.67;77.64;101839.63;4994408;28;20174;-46
2022/07/04 07:46:50;;;;;;;4.05;1.20;;;;;;;18.45;78.45;101835.38;4994292;28;20575;-44
2022/07/04 07:49:16;;;;;;;4.80;1.45;;;;;;;18.79;78.08;101838.09;4994520;28;20170;-49
2022/07/04 07:51:41;;;;;;;3.20;1.25;;;;;;;19.08;75.75;101829.16;4994159;28;20559;-45
2022/07/04 07:54:07;;;;;;;5.15;1.20;;;;;;;18.83;77.36;101848.72;4994296;28;20187;-43
2022/07/04 07:56:32;;;;;;;2.28;1.00;;;;;;;18.57;78.87;101835.69;4994087;28;20173;-45
2022/07/04 07:58:58;;;;;;;3.85;0.70;;;;;;;18.09;79.00;101844.59;4994300;28;20273;-49
2022/07/04 08:01:23;;;;;;;2.60;0.75;;;;;;;17.78;78.25;101841.72;4994486;28;20162;-44
2022/07/04 08:06:33;;;;;;;3.40;1.30;;;;;;;18.89;76.23;101848.38;4994164;28;20252;-44
2022/07/04 08:08:59;;;;;;;5.97;1.10;;;;;;;19.40;75.36;101847.25;4994131;28;20252;-46
2022/07/04 08:11:25;;;;;;;1.38;0.80;;;;;;;19.55;75.01;101827.31;4976367;28;20213;-43
2022/07/04 08:13:51;;;;;;;3.22;1.05;;;;;;;19.54;74.00;101833.72;4993800;28;20224;-44
2022/07/04 08:16:16;;;;;;;4.95;1.00;;;;;;;19.71;73.20;101840.88;4994036;28;20169;-43
2022/07/04 08:18:42;;;;;;;3.13;1.17;;;;;;;19.64;72.62;101844.94;4993705;28;20504;-44
2022/07/04 08:21:07;;;;;;;2.78;0.85;;;;;;;19.62;74.45;101858.59;4994002;28;20172;-45
2022/07/04 08:23:33;;;;;;;2.75;0.90;;;;;;;19.92;70.63;101847.75;4990283;28;20673;-46
2022/07/04 08:26:00;;;;;;;3.75;0.80;;;;;;;19.67;70.89;101829.28;4974408;28;20174;-45
2022/07/04 08:28:27;;;;;;;1.92;0.85;;;;;;;20.12;69.09;101822.03;4973994;28;20202;-45
2022/07/04 08:30:53;;;;;;;4.82;1.45;;;;;;;20.55;69.86;101822.03;4974179;28;20560;-45
2022/07/04 08:33:18;;;;;;;1.35;0.63;;;;;;;20.57;68.05;101825.56;4973881;28;20194;-46
2022/07/04 08:35:44;;;;;;;3.10;1.00;;;;;;;19.72;70.55;101829.94;4974088;28;20556;-45
2022/07/04 08:38:09;;;;;;;1.98;0.93;;;;;;;20.71;69.76;101827.38;4973900;28;20229;-46
2022/07/04 08:40:35;;;;;;;3.55;0.85;;;;;;;21.10;67.42;101820.28;4972415;28;20166;-46
2022/07/04 08:43:04;;;;;;;2.65;0.85;;;;;;;21.26;65.91;101819.25;4973942;28;20177;-45
2022/07/04 08:45:34;;;;;;;2.28;0.80;;;;;;;20.47;67.84;101821.63;4973887;28;20524;-44
2022/07/04 08:48:01;;;;;;;2.72;1.02;;;;;;;20.39;68.09;101826.69;4973833;28;20206;-46
2022/07/04 08:50:33;;;;;;;3.97;0.80;;;;;;;19.71;68.16;101811.84;4973540;28;20200;-44
2022/07/04 08:53:16;;;;;;;3.47;1.00;;;;;;;19.90;69.68;101818.91;4974126;28;20220;-44
2022/07/04 08:58:31;;;;;;;2.20;0.80;;;;;;;19.73;70.70;101826.22;4973556;28;20202;-45
2022/07/04 09:01:03;;;;;;;2.55;0.80;;;;;;;19.69;69.57;101824.66;4973474;28;20646;-46
2022/07/04 09:03:30;;;;;;;2.38;0.90;;;;;;;19.80;66.89;101814.97;4973515;28;20614;-45
2022/07/04 09:05:57;;;;;;;1.25;0.63;;;;;;;19.52;67.21;101816.63;4973370;28;20181;-44
2022/07/04 09:08:23;;;;;;;3.38;1.00;;;;;;;19.73;68.16;101809.91;4973392;28;20237;-47
2022/07/04 09:10:49;;;;;;;3.50;1.20;;;;;;;19.50;68.67;101810.38;4973216;28;20229;-47
2022/07/04 09:13:17;;;;;;;2.13;0.80;;;;;;;19.58;67.49;101826.25;4973735;28;20642;-45
2022/07/04 09:15:44;;;;;;;1.88;0.80;;;;;;;19.87;67.94;101825.38;4972709;28;20536;-45
2022/07/04 09:18:23;;;;;;;1.77;0.70;;;;;;;20.30;66.16;101806.38;4972992;28;20209;-45
2022/07/04 09:20:49;;;;;;;3.38;0.90;;;;;;;20.44;65.45;101794.59;4973286;28;20193;-45
2022/07/04 09:23:20;;;;;;;3.08;1.13;;;;;;;20.60;66.06;101796.34;4973475;28;20198;-45
2022/07/04 09:25:46;;;;;;;3.30;0.98;;;;;;;20.86;65.18;101798.25;4992441;28;20162;-45
2022/07/04 09:28:25;;;;;;;2.78;0.65;;;;;;;20.75;64.69;101793.50;4992205;28;20276;-45
2022/07/04 09:30:50;;;;;;;2.53;1.00;;;;;;;20.54;66.40;101801.19;4992358;28;20283;-44
2022/07/04 09:33:18;;;;;;;1.90;0.80;;;;;;;20.48;64.82;101826.09;4991988;28;20256;-44
2022/07/04 09:35:44;;;;;;;0.65;0.60;;;;;;;20.28;64.64;101818.31;4992621;28;20165;-47
2022/07/04 09:38:11;;;;;;;1.30;0.82;;;;;;;20.02;65.08;101803.66;4992238;28;20577;-44
2022/07/04 09:43:24;;;;;;;1.05;0.75;;;;;;;19.94;66.41;101807.72;4992190;28;20197;-43
2022/07/04 09:45:57;;;;;;;2.40;1.00;;;;;;;19.98;65.31;101797.50;4992212;28;20212;-42
2022/07/04 09:48:24;;;;;;;3.20;1.08;;;;;;;19.67;65.87;101796.66;4991844;28;20210;-43
2022/07/04 09:50:50;;;;;;;3.38;0.93;;;;;;;19.65;66.64;101806.75;4992142;28;20196;-46
2022/07/04 09:53:16;;;;;;;1.63;0.70;;;;;;;20.26;65.80;101847.47;4991849;28;20651;-47
2022/07/04 09:55:41;;;;;;;3.67;0.80;;;;;;;20.62;63.87;101862.47;4991835;28;20268;-43
2022/07/04 09:58:12;;;;;;;3.42;0.70;;;;;;;21.10;64.17;101852.06;4991988;28;20201;-48
2022/07/04 10:00:40;;;;;;;1.73;0.70;;;;;;;21.31;62.48;101820.66;4991666;28;20170;-43
2022/07/04 10:03:26;;;;;;;3.75;0.90;;;;;;;21.33;62.25;101616.97;4992122;28;20392;-44
2022/07/04 10:06:12;;;;;;;1.25;0.60;;;;;;;20.72;63.69;101812.75;4991901;28;20621;-44
2022/07/04 10:08:40;;;;;;;2.22;0.75;;;;;;;20.84;65.40;101788.41;4991672;28;20200;-45
2022/07/04 10:11:06;;;;;;;3.97;1.17;;;;;;;20.25;66.44;101794.03;4991561;28;20675;-49
2022/07/04 10:13:32;;;;;;;1.95;0.60;;;;;;;20.11;67.01;101793.03;4991336;28;20289;-48
2022/07/04 10:15:58;;;;;;;2.53;0.80;;;;;;;19.88;67.97;101807.22;4991479;28;20185;-48
2022/07/04 10:18:25;;;;;;;3.03;0.80;;;;;;;19.77;68.49;101802.44;4991462;28;20692;-46
2022/07/04 10:20:52;;;;;;;5.18;0.80;;;;;;;19.18;67.87;101796.03;4991449;28;20176;-48
2022/07/04 10:23:20;;;;;;;2.45;0.70;;;;;;;19.33;68.94;101800.56;4991085;28;20188;-48
2022/07/04 10:25:47;;;;;;;5.57;0.93;;;;;;;19.54;68.35;101798.38;4991201;28;20173;-47
2022/07/04 10:28:13;;;;;;;3.53;0.98;;;;;;;20.36;66.76;101797.81;4991208;28;20279;-47
2022/07/04 10:30:40;;;;;;;3.08;0.98;;;;;;;21.19;63.75;101794.25;4991384;28;20219;-48
2022/07/04 10:33:08;;;;;;;3.85;0.98;;;;;;;21.66;62.08;101794.72;4991025;28;20170;-48
2022/07/04 10:35:53;;;;;;;3.38;0.80;;;;;;;21.94;63.04;101788.19;4991379;28;20204;-50
2022/07/04 10:38:22;;;;;;;0.93;0.70;;;;;;;20.63;61.74;101782.56;4991251;28;20197;-47
2022/07/04 10:40:50;;;;;;;2.47;0.60;;;;;;;20.63;63.10;101779.81;4991405;28;20185;-50
2022/07/04 10:43:25;;;;;;;1.33;0.70;;;;;;;20.08;63.51;101789.66;4973739;28;20196;-45
2022/07/04 10:45:51;;;;;;;1.60;0.50;;;;;;;20.15;64.12;101788.28;4991290;28;20204;-49
2022/07/04 10:48:22;;;;;;;3.72;0.70;;;;;;;19.55;64.56;102010.31;4991022;28;20201;-47
2022/07/04 10:51:01;;;;;;;1.42;0.60;;;;;;;19.25;66.30;101863.50;4991183;28;20292;-46
2022/07/04 10:53:27;;;;;;;1.58;0.68;;;;;;;19.20;67.66;101822.13;4990910;28;20530;-46
2022/07/04 10:55:53;;;;;;;2.88;0.90;;;;;;;19.04;67.81;101818.56;4991349;28;20173;-49
2022/07/04 10:58:42;;;;;;;1.33;0.52;;;;;;;19.35;67.97;101826.66;4990820;28;20272;-47
2022/07/04 11:01:11;;;;;;;1.65;0.70;;;;;;;19.25;67.46;101814.59;4988330;28;20190;-47
2022/07/04 11:03:53;;;;;;;2.97;0.60;;;;;;;19.32;68.49;101805.09;4973590;28;20587;-49
2022/07/04 11:06:42;;;;;;;0.77;0.50;;;;;;;19.52;69.09;101814.75;4991078;28;20162;-45
2022/07/04 11:09:24;;;;;;;1.25;0.70;;;;;;;19.40;68.42;101806.50;4990849;28;20217;-47
2022/07/04 11:12:00;;;;;;;2.38;0.88;;;;;;;19.28;69.18;101808.09;4990742;28;20209;-48
2022/07/04 11:14:32;;;;;;;2.08;0.75;;;;;;;19.02;69.31;101798.75;4990531;28;20605;-46
2022/07/04 11:16:58;;;;;;;1.98;0.80;;;;;;;19.25;69.62;101798.28;4990816;28;20209;-47
2022/07/04 11:19:24;;;;;;;3.63;0.93;;;;;;;19.26;68.81;101807.31;4990719;28;20522;-46
2022/07/04 11:21:49;;;;;;;2.47;0.75;;;;;;;19.11;69.32;101801.81;4990850;28;20170;-46
2022/07/04 11:24:15;;;;;;;2.70;0.90;;;;;;;19.14;69.28;101807.06;4990300;28;20606;-45
2022/07/04 11:26:40;;;;;;;2.00;0.80;;;;;;;19.28;69.35;101803.53;4990864;28;20162;-47
2022/07/04 11:29:06;;;;;;;2.60;0.80;;;;;;;19.44;68.95;101799.88;4990989;28;20201;-49
2022/07/04 11:31:42;;;;;;;2.63;0.82;;;;;;;19.67;69.84;101810.25;4990410;28;20216;-47
2022/07/04 11:34:09;;;;;;;1.77;0.90;;;;;;;20.68;67.71;101788.56;4990164;28;20540;-47
2022/07/04 11:36:34;;;;;;;2.20;0.88;;;;;;;20.98;66.40;101796.56;4990551;28;20518;-47